KBWG/BWG METAR and TAF weather

Enter ICAO airport designator
Station Type Date Time Source
KBWG METAR 2021/04/14 19:53 UTC NOAA

KBWG 141953Z AUTO VRB04KT 10SM OVC049 14/05 A3008 RMK AO2 SLP183 T01440050


Station Type Date Time Source
KBWG Decoded METAR 2021/04/14 19:53 UTC NOAA

BOWLING GREEN-WARREN CO RGNL, KY, United States (KBWG) 36-58N 086-25W 161M
Apr 14, 2021 - 03:53 PM EDT / 2021.04.14 1953 UTC
Wind: Variable at 5 MPH (4 KT):0
Visibility: 10 mile(s):0
Sky conditions: overcast
Temperature: 57.9 F (14.4 C)
Dew Point: 41.0 F (5.0 C)
Relative Humidity: 53%
Pressure (altimeter): 30.08 in. Hg (1018 hPa)
ob: KBWG 141953Z AUTO VRB04KT 10SM OVC049 14/05 A3008 RMK AO2 SLP183 T01440050
cycle: 20

Station Type Date Time Source
KBWG TAF 2021/04/14 18:36 UTC NOAA

TAF KBWG 141734Z 1418/1518 02004KT P6SM VCSH OVC035
TEMPO 1418/1420 BKN028
FM142000 VRB04KT P6SM OVC060
FM150300 29004KT P6SM FEW120
FM151300 35010KT P6SM FEW040

Example: see airport list